createdAt,value
2019-03-19T00:00:21.722Z,94211.56
2019-03-19T00:02:50.433Z,94223.62
2019-03-19T00:05:19.057Z,94215.28
2019-03-19T00:07:47.715Z,94218.23
2019-03-19T00:10:16.375Z,94225.06
2019-03-19T00:12:45.045Z,94220.89
2019-03-19T00:15:13.714Z,94205.06
2019-03-19T00:17:42.388Z,94214.61
2019-03-19T00:20:13.559Z,94212.63
2019-03-19T00:22:42.378Z,94218.32
2019-03-19T00:25:11.044Z,94215.23
2019-03-19T00:27:39.730Z,94212.27
2019-03-19T00:30:15.945Z,94218.33
2019-03-19T00:32:44.719Z,94212.88
2019-03-19T00:35:13.994Z,94214.48
2019-03-19T00:37:42.671Z,94212.00
2019-03-19T00:40:15.806Z,94210.53
2019-03-19T00:42:44.478Z,94208.05
2019-03-19T00:45:14.255Z,94207.03
2019-03-19T00:47:42.912Z,94207.53
2019-03-19T00:50:13.486Z,94204.08
2019-03-19T00:52:42.157Z,94203.45
2019-03-19T00:55:11.430Z,94207.66
2019-03-19T00:57:40.098Z,94208.52
2019-03-19T01:00:14.580Z,94211.88
2019-03-19T01:02:43.272Z,94219.90
2019-03-19T01:05:12.057Z,94222.63
2019-03-19T01:07:40.733Z,94222.46
2019-03-19T01:10:17.635Z,94217.12
2019-03-19T01:12:46.555Z,94221.69
2019-03-19T01:15:15.828Z,94216.36
2019-03-19T01:17:44.895Z,94221.98
2019-03-19T01:20:17.179Z,94218.91
2019-03-19T01:22:45.842Z,94222.58
2019-03-19T01:25:14.634Z,94228.73
2019-03-19T01:27:43.320Z,94224.42
2019-03-19T01:30:15.907Z,94227.38
2019-03-19T01:32:44.567Z,94229.36
2019-03-19T01:35:13.350Z,94231.87
2019-03-19T01:37:42.002Z,94234.47
2019-03-19T01:40:12.751Z,94235.33
2019-03-19T01:42:41.520Z,94237.35
2019-03-19T01:45:13.741Z,94229.92
2019-03-19T01:47:42.407Z,94234.89
2019-03-19T01:50:15.152Z,94236.14
2019-03-19T01:52:44.041Z,94247.39
2019-03-19T01:55:14.659Z,94240.70
2019-03-19T01:57:43.319Z,94245.41
2019-03-19T02:00:14.232Z,94242.66
2019-03-19T02:02:42.911Z,94246.01
2019-03-19T02:05:11.684Z,94249.83
2019-03-19T02:07:40.349Z,94252.68
2019-03-19T02:10:12.827Z,94259.45
2019-03-19T02:12:41.689Z,94255.37
2019-03-19T02:15:15.968Z,94259.19
2019-03-19T02:17:44.812Z,94264.02
2019-03-19T02:20:14.909Z,94270.69
2019-03-19T02:22:43.705Z,94277.72
2019-03-19T02:25:12.386Z,94285.28
2019-03-19T02:27:41.083Z,94284.50
2019-03-19T02:30:16.346Z,94282.56
2019-03-19T02:32:45.018Z,94288.16
2019-03-19T02:35:13.713Z,94290.25
2019-03-19T02:37:42.408Z,94291.33
2019-03-19T02:40:13.418Z,94290.33
2019-03-19T02:42:42.074Z,94301.53
2019-03-19T02:45:12.119Z,94301.59
2019-03-19T02:47:40.757Z,94310.81
2019-03-19T02:50:12.163Z,94316.16
2019-03-19T02:52:40.843Z,94321.05
2019-03-19T02:55:10.614Z,94324.91
2019-03-19T02:57:39.306Z,94326.27
2019-03-19T03:00:13.334Z,94331.73
2019-03-19T03:02:42.099Z,94332.59
2019-03-19T03:05:18.874Z,94343.55
2019-03-19T03:07:47.543Z,94347.13
2019-03-19T03:10:16.215Z,94343.38
2019-03-19T03:12:44.895Z,94342.02
2019-03-19T03:15:14.748Z,94339.80
2019-03-19T03:17:43.437Z,94341.80
2019-03-19T03:20:13.704Z,94350.99
2019-03-19T03:22:42.369Z,94341.59
2019-03-19T03:25:18.092Z,94354.58
2019-03-19T03:27:46.755Z,94352.05
2019-03-19T03:30:17.727Z,94353.16
2019-03-19T03:32:46.670Z,94359.00
2019-03-19T03:35:15.352Z,94351.52
2019-03-19T03:37:44.025Z,94356.10
2019-03-19T03:40:14.577Z,94350.47
2019-03-19T03:42:43.792Z,94362.97
2019-03-19T03:45:14.531Z,94370.65
2019-03-19T03:47:43.516Z,94368.97
2019-03-19T03:50:13.880Z,94368.29
2019-03-19T03:52:42.640Z,94364.36
2019-03-19T03:55:12.907Z,94371.44
2019-03-19T03:57:41.531Z,94369.98
2019-03-19T04:00:21.346Z,94373.18
2019-03-19T04:02:50.015Z,94378.25
2019-03-19T04:05:19.009Z,94382.51
2019-03-19T04:07:47.662Z,94381.23
2019-03-19T04:10:19.971Z,94389.83
2019-03-19T04:12:48.636Z,94390.31
2019-03-19T04:15:18.106Z,94386.38
2019-03-19T04:17:46.821Z,94389.23
2019-03-19T04:20:19.217Z,94392.08
2019-03-19T04:22:48.095Z,94394.52
2019-03-19T04:25:16.776Z,94391.60
2019-03-19T04:27:45.518Z,94392.20
2019-03-19T04:30:20.931Z,94399.26
2019-03-19T04:32:49.916Z,94401.83
2019-03-19T04:35:18.579Z,94398.29
2019-03-19T04:37:47.256Z,94407.78
2019-03-19T04:40:18.888Z,94411.80
2019-03-19T04:42:47.847Z,94411.80
2019-03-19T04:45:17.231Z,94411.61
2019-03-19T04:47:45.929Z,94407.44
2019-03-19T04:50:16.631Z,94407.24
2019-03-19T04:52:45.479Z,94422.98
2019-03-19T04:55:16.140Z,94424.72
2019-03-19T04:57:45.098Z,94427.92
2019-03-19T05:00:17.521Z,94430.43
2019-03-19T05:02:46.181Z,94439.77
2019-03-19T05:05:15.059Z,94444.45
2019-03-19T05:07:44.006Z,94442.61
2019-03-19T05:10:14.968Z,94441.30
2019-03-19T05:12:43.687Z,94450.00
2019-03-19T05:15:12.982Z,94439.25
2019-03-19T05:17:42.153Z,94445.03
2019-03-19T05:20:15.017Z,94438.27
2019-03-19T05:22:43.754Z,94441.09
2019-03-19T05:25:12.622Z,94445.50
2019-03-19T05:27:41.302Z,94448.17
2019-03-19T05:30:20.626Z,94451.22
2019-03-19T05:32:49.272Z,94449.19
2019-03-19T05:35:17.951Z,94454.27
2019-03-19T05:37:46.618Z,94453.78
2019-03-19T05:40:16.591Z,94454.30
2019-03-19T05:42:45.471Z,94457.80
2019-03-19T05:45:15.216Z,94443.91
2019-03-19T05:47:44.160Z,94446.03
2019-03-19T05:50:15.310Z,94446.42
2019-03-19T05:52:44.353Z,94458.99
2019-03-19T05:55:13.519Z,94460.75
2019-03-19T05:57:49.330Z,94463.83
2019-03-19T06:00:17.245Z,94458.13
2019-03-19T06:02:46.105Z,94460.07
2019-03-19T06:05:14.802Z,94459.00
2019-03-19T06:07:43.467Z,94463.83
2019-03-19T06:10:13.660Z,94470.78
2019-03-19T06:12:42.350Z,94462.00
2019-03-19T06:15:15.363Z,94467.92
2019-03-19T06:17:44.602Z,94467.93
2019-03-19T06:20:14.675Z,94466.09
2019-03-19T06:22:43.360Z,94472.14
2019-03-19T06:25:13.759Z,94468.44
2019-03-19T06:27:43.397Z,94469.91
2019-03-19T06:30:18.873Z,94474.09
2019-03-19T06:32:47.638Z,94471.94
2019-03-19T06:35:17.106Z,94475.06
2019-03-19T06:37:46.008Z,94477.75
2019-03-19T06:40:22.238Z,94486.61
2019-03-19T06:42:50.917Z,94479.03
2019-03-19T06:45:22.873Z,94486.02
2019-03-19T06:47:50.700Z,94492.70
2019-03-19T06:50:22.524Z,94486.71
2019-03-19T06:52:51.311Z,94486.42
2019-03-19T06:55:20.898Z,94479.45
2019-03-19T06:57:50.114Z,94489.48
2019-03-19T07:00:21.794Z,94491.97
2019-03-19T07:02:50.554Z,94493.95
2019-03-19T07:05:19.896Z,94491.47
2019-03-19T07:07:49.113Z,94493.39
2019-03-19T07:10:19.125Z,94494.53
2019-03-19T07:12:47.866Z,94493.41
2019-03-19T07:15:20.959Z,94493.91
2019-03-19T07:17:49.740Z,94494.74
2019-03-19T07:20:19.993Z,94498.80
2019-03-19T07:22:48.854Z,94496.51
2019-03-19T07:25:19.311Z,94500.58
2019-03-19T07:27:49.545Z,94499.48
2019-03-19T07:30:20.697Z,94510.68
2019-03-19T07:32:49.479Z,94503.39
2019-03-19T07:35:18.451Z,94509.00
2019-03-19T07:37:47.241Z,94505.20
2019-03-19T07:40:19.391Z,94507.73
2019-03-19T07:42:50.910Z,94510.83
2019-03-19T07:45:21.639Z,94503.48
2019-03-19T07:47:50.785Z,94505.86
2019-03-19T07:50:21.804Z,94508.62
2019-03-19T07:52:50.785Z,94507.12
2019-03-19T07:55:19.797Z,94513.63
2019-03-19T07:57:48.634Z,94506.70
2019-03-19T08:00:21.494Z,94508.75
2019-03-19T08:02:51.899Z,94506.17
2019-03-19T08:05:20.708Z,94510.72
2019-03-19T08:07:49.406Z,94502.23
2019-03-19T08:10:19.899Z,94504.22
2019-03-19T08:12:54.163Z,94499.13
2019-03-19T08:15:21.045Z,94500.98
2019-03-19T08:17:49.740Z,94505.38
2019-03-19T08:20:18.905Z,94500.10
2019-03-19T08:22:47.656Z,94500.86
2019-03-19T08:25:16.829Z,94493.48
2019-03-19T08:27:45.816Z,94500.05
2019-03-19T08:30:25.231Z,94501.97
2019-03-19T08:32:53.993Z,94493.20
2019-03-19T08:35:22.679Z,94491.56
2019-03-19T08:37:51.389Z,94495.82
2019-03-19T08:40:21.072Z,94492.42
2019-03-19T08:42:50.062Z,94487.09
2019-03-19T08:45:26.385Z,94492.34
2019-03-19T08:47:55.190Z,94488.42
2019-03-19T08:50:24.699Z,94492.35
2019-03-19T08:52:55.390Z,94492.17
2019-03-19T08:55:23.962Z,94491.26
2019-03-19T08:57:52.687Z,94493.13
2019-03-19T09:00:22.497Z,94479.68
2019-03-19T09:02:51.174Z,94490.66
2019-03-19T09:05:19.946Z,94484.92
2019-03-19T09:07:48.634Z,94485.28
2019-03-19T09:10:25.150Z,94489.11
2019-03-19T09:12:53.983Z,94480.65
2019-03-19T09:15:29.623Z,94486.05
2019-03-19T09:17:58.306Z,94475.24
2019-03-19T09:20:27.275Z,94477.72
2019-03-19T09:22:56.228Z,94467.58
2019-03-19T09:25:24.895Z,94469.57
2019-03-19T09:27:53.661Z,94473.34
2019-03-19T09:30:24.004Z,94479.95
2019-03-19T09:32:53.353Z,94483.53
2019-03-19T09:35:22.122Z,94476.84
2019-03-19T09:37:58.311Z,94475.57
2019-03-19T09:40:22.044Z,94475.63
2019-03-19T09:42:50.743Z,94473.71
2019-03-19T09:45:20.033Z,94470.42
2019-03-19T09:47:48.739Z,94469.28
2019-03-19T09:50:25.206Z,94471.88
2019-03-19T09:52:53.925Z,94468.45
2019-03-19T09:55:22.843Z,94473.48
2019-03-19T09:57:51.742Z,94479.11
2019-03-19T10:00:21.662Z,94474.05
2019-03-19T10:02:50.921Z,94470.39
2019-03-19T10:05:20.060Z,94466.28
2019-03-19T10:07:48.885Z,94468.05
2019-03-19T10:10:18.377Z,94466.31
2019-03-19T10:12:47.079Z,94464.52
2019-03-19T10:15:16.896Z,94457.33
2019-03-19T10:17:45.660Z,94443.78
2019-03-19T10:20:19.329Z,94453.92
2019-03-19T10:22:48.025Z,94459.19
2019-03-19T10:25:17.418Z,94459.39
2019-03-19T10:27:46.582Z,94458.50
2019-03-19T10:30:25.121Z,94459.33
2019-03-19T10:32:53.864Z,94454.59
2019-03-19T10:35:23.340Z,94454.64
2019-03-19T10:37:52.044Z,94452.68
2019-03-19T10:40:22.010Z,94437.03
2019-03-19T10:42:51.005Z,94404.61
2019-03-19T10:45:21.382Z,94448.45
2019-03-19T10:47:50.672Z,94446.24
2019-03-19T10:50:23.593Z,94436.63
2019-03-19T10:52:52.391Z,94441.09
2019-03-19T10:55:21.322Z,94441.13
2019-03-19T10:57:50.294Z,94434.48
2019-03-19T11:00:23.792Z,94429.80
2019-03-19T11:02:53.285Z,94424.66
2019-03-19T11:05:23.846Z,94427.30
2019-03-19T11:08:03.123Z,94415.94
2019-03-19T11:10:32.109Z,94417.57
2019-03-19T11:13:00.791Z,94417.88
2019-03-19T11:15:31.495Z,94415.94
2019-03-19T11:18:00.091Z,94414.02
2019-03-19T11:20:28.986Z,94405.42
2019-03-19T11:22:58.055Z,94409.11
2019-03-19T11:25:28.129Z,94406.59
2019-03-19T11:27:57.726Z,94404.67
2019-03-19T11:30:30.802Z,94395.36
2019-03-19T11:32:59.910Z,94400.87
2019-03-19T11:35:28.893Z,94400.72
2019-03-19T11:37:57.675Z,94392.44
2019-03-19T11:40:26.576Z,94396.61
2019-03-19T11:42:55.669Z,94389.53
2019-03-19T11:45:25.013Z,94388.05
2019-03-19T11:47:53.759Z,94386.14
2019-03-19T11:50:23.724Z,94383.27
2019-03-19T11:52:53.261Z,94382.42
2019-03-19T11:55:22.463Z,94384.00
2019-03-19T11:57:51.448Z,94375.34
2019-03-19T12:00:29.617Z,94374.27
2019-03-19T12:02:58.791Z,94374.39
2019-03-19T12:05:27.828Z,94374.42
2019-03-19T12:07:57.134Z,94373.80
2019-03-19T12:10:26.074Z,94366.52
2019-03-19T12:12:54.890Z,94359.19
2019-03-19T12:15:23.752Z,94365.91
2019-03-19T12:17:52.472Z,94365.56
2019-03-19T12:20:21.235Z,94359.31
2019-03-19T12:22:50.017Z,94357.45
2019-03-19T12:25:20.006Z,94348.77
2019-03-19T12:27:48.729Z,94356.17
2019-03-19T12:30:25.786Z,94350.16
2019-03-19T12:32:52.743Z,94351.67
2019-03-19T12:35:21.556Z,94339.55
2019-03-19T12:37:50.524Z,94345.70
2019-03-19T12:40:35.903Z,94340.74
2019-03-19T12:42:55.321Z,94345.30
2019-03-19T12:45:24.853Z,94335.69
2019-03-19T12:47:53.607Z,94338.28
2019-03-19T12:50:24.348Z,94341.15
2019-03-19T12:52:53.196Z,94318.94
2019-03-19T12:55:22.239Z,94330.17
2019-03-19T12:57:50.982Z,94331.45
2019-03-19T13:00:34.656Z,94332.03
2019-03-19T13:02:59.764Z,94329.30
2019-03-19T13:05:28.987Z,94337.67
2019-03-19T13:07:58.260Z,94336.06
2019-03-19T13:10:27.521Z,94334.73
2019-03-19T13:12:56.920Z,94332.33
2019-03-19T13:15:26.010Z,94331.97
2019-03-19T13:17:55.163Z,94331.23
2019-03-19T13:20:24.457Z,94329.41
2019-03-19T13:22:53.161Z,94325.71
2019-03-19T13:25:23.080Z,94328.45
2019-03-19T13:27:52.419Z,94309.26
2019-03-19T13:30:25.837Z,94327.23
2019-03-19T13:32:54.844Z,94328.53
2019-03-19T13:35:23.725Z,94329.11
2019-03-19T13:37:52.571Z,94325.95
2019-03-19T13:40:21.404Z,94330.32
2019-03-19T13:42:50.315Z,94322.02
2019-03-19T13:45:23.557Z,94328.27
2019-03-19T13:47:52.690Z,94336.75
2019-03-19T13:50:22.643Z,94324.95
2019-03-19T13:52:51.397Z,94329.81
2019-03-19T13:55:23.713Z,94332.44
2019-03-19T13:57:54.682Z,94327.86
2019-03-19T14:00:23.546Z,94329.61
2019-03-19T14:02:59.126Z,94330.56
2019-03-19T14:05:27.670Z,94328.66
2019-03-19T14:08:20.264Z,94322.93
2019-03-19T14:10:49.369Z,94324.94
2019-03-19T14:13:23.499Z,94324.31
2019-03-19T14:28:25.724Z,94319.48
2019-03-19T14:40:04.858Z,94323.17
2019-03-19T14:42:53.226Z,94321.53
2019-03-19T14:45:22.463Z,94330.11
2019-03-19T14:47:51.129Z,94328.45
2019-03-19T14:50:21.061Z,94319.02
2019-03-19T14:52:49.743Z,94336.00
2019-03-19T14:55:22.978Z,94336.29
2019-03-19T14:57:51.758Z,94344.91
2019-03-19T15:00:23.727Z,94354.52
2019-03-19T15:05:49.312Z,94355.31
2019-03-19T15:08:18.370Z,94364.17
2019-03-19T15:10:47.159Z,94365.27
2019-03-19T15:13:16.145Z,94369.44
2019-03-19T15:19:05.199Z,94380.94
2019-03-19T15:21:46.640Z,94388.59
2019-03-19T15:27:15.468Z,94389.19
2019-03-19T15:29:44.181Z,94400.56
2019-03-19T15:32:12.902Z,94398.83
2019-03-19T15:34:41.770Z,94404.77
2019-03-19T15:37:13.363Z,94407.87
2019-03-19T15:39:42.083Z,94410.91
2019-03-19T15:42:10.746Z,94349.20
2019-03-19T15:47:32.694Z,94415.09
2019-03-19T15:50:01.544Z,94415.92
2019-03-19T15:52:30.244Z,94411.55
2019-03-19T15:54:58.946Z,94423.51
2019-03-19T15:57:27.661Z,94427.39
2019-03-19T15:59:56.333Z,94429.88
2019-03-19T16:02:24.985Z,94428.77
2019-03-19T16:04:53.731Z,94432.30
2019-03-19T16:07:25.153Z,94425.22
2019-03-19T16:09:53.869Z,94447.84
2019-03-19T16:12:22.648Z,94455.36
2019-03-19T16:14:51.306Z,94460.54
2019-03-19T16:17:20.266Z,94463.29
2019-03-19T16:19:48.981Z,94470.34
2019-03-19T16:22:17.636Z,94471.55
2019-03-19T16:24:46.400Z,94474.52
2019-03-19T16:27:15.053Z,94481.75
2019-03-19T16:29:48.636Z,94482.66
2019-03-19T16:32:17.461Z,94491.56
2019-03-19T16:34:51.119Z,94488.05
2019-03-19T16:37:21.813Z,94488.98
2019-03-19T16:39:53.954Z,94493.75
2019-03-19T16:42:28.092Z,94503.48
2019-03-19T16:44:59.872Z,94514.97
2019-03-19T16:47:31.575Z,94517.14
2019-03-19T16:50:00.424Z,94526.28
2019-03-19T16:52:34.424Z,94526.84
2019-03-19T16:55:07.238Z,94531.45
2019-03-19T16:57:35.931Z,94530.25
2019-03-19T17:00:10.642Z,94537.31
2019-03-19T17:02:39.336Z,94551.28
2019-03-19T17:05:10.217Z,94553.63
2019-03-19T17:07:38.913Z,94553.74
2019-03-19T17:10:22.746Z,94555.75
2019-03-19T17:12:51.427Z,94563.92
2019-03-19T17:15:20.089Z,94566.84
2019-03-19T17:17:48.767Z,94562.24
2019-03-19T17:20:20.562Z,94572.39
2019-03-19T17:22:49.344Z,94583.80
2019-03-19T17:25:27.857Z,94583.61
2019-03-19T17:27:56.576Z,94589.47
2019-03-19T17:30:29.254Z,94596.72
2019-03-19T17:32:58.026Z,94588.48
2019-03-19T17:35:26.702Z,94604.19
2019-03-19T17:37:55.386Z,94609.02
2019-03-19T17:40:24.264Z,94607.64
2019-03-19T17:42:52.940Z,94611.23
2019-03-19T17:45:21.616Z,94618.34
2019-03-19T17:47:50.482Z,94618.73
2019-03-19T17:50:23.645Z,94624.36
2019-03-19T17:52:54.753Z,94624.23
2019-03-19T17:55:34.946Z,94630.00
2019-03-19T17:58:03.697Z,94612.89
2019-03-19T18:00:39.991Z,94638.97
2019-03-19T18:03:08.678Z,94638.62
2019-03-19T18:05:37.352Z,94650.70
2019-03-19T18:08:06.008Z,94650.58
2019-03-19T18:10:34.706Z,94647.88
2019-03-19T18:13:03.400Z,94651.72
2019-03-19T18:15:32.172Z,94653.59
2019-03-19T18:18:00.857Z,94647.39
2019-03-19T18:20:29.521Z,94654.34
2019-03-19T18:22:58.190Z,94659.46
2019-03-19T18:25:26.881Z,94660.06
2019-03-19T18:27:55.563Z,94664.19
2019-03-19T18:30:25.145Z,94660.84
2019-03-19T18:32:53.961Z,94668.78
2019-03-19T18:35:22.635Z,94674.02
2019-03-19T18:37:51.540Z,94671.16
2019-03-19T18:40:20.803Z,94673.41
2019-03-19T18:42:49.544Z,94681.86
2019-03-19T18:45:20.075Z,94678.36
2019-03-19T18:47:48.929Z,94676.64
2019-03-19T18:50:23.910Z,94677.38
2019-03-19T18:52:52.596Z,94684.09
2019-03-19T18:55:21.295Z,94679.74
2019-03-19T18:57:49.991Z,94686.09
2019-03-19T19:00:19.971Z,94683.84
2019-03-19T19:02:50.513Z,94685.09
2019-03-19T19:05:23.586Z,94685.34
2019-03-19T19:07:52.270Z,94682.81
2019-03-19T19:10:21.667Z,94699.22
2019-03-19T19:12:50.802Z,94696.72
2019-03-19T19:15:20.602Z,94699.83
2019-03-19T19:17:58.892Z,94701.34
2019-03-19T19:20:50.364Z,94702.44
2019-03-19T19:23:27.846Z,94704.91
2019-03-19T19:25:56.527Z,94713.84
2019-03-19T19:28:29.396Z,94715.58
2019-03-19T19:30:58.268Z,94719.67
2019-03-19T19:33:27.000Z,94720.05
2019-03-19T19:35:55.698Z,94722.77
2019-03-19T19:38:24.399Z,94727.11
2019-03-19T19:40:53.275Z,94729.34
2019-03-19T19:43:21.957Z,94736.27
2019-03-19T19:45:50.645Z,94734.89
2019-03-19T19:48:19.331Z,94730.16
2019-03-19T19:50:48.005Z,94739.22
2019-03-19T19:53:16.700Z,94733.89
2019-03-19T19:55:45.438Z,94741.08
2019-03-19T19:58:14.127Z,94748.64
2019-03-19T20:00:42.794Z,94755.55
2019-03-19T20:03:12.713Z,94763.64
2019-03-19T20:05:41.570Z,94764.97
2019-03-19T20:08:10.251Z,94765.47
2019-03-19T20:10:39.095Z,94763.47
2019-03-19T20:13:07.767Z,94768.91
2019-03-19T20:15:36.434Z,94767.91
2019-03-19T20:18:05.102Z,94769.14
2019-03-19T20:20:34.784Z,94775.22
2019-03-19T20:23:03.473Z,94781.17
2019-03-19T20:25:32.139Z,94776.53
2019-03-19T20:28:00.803Z,94777.97
2019-03-19T20:30:29.575Z,94774.38
2019-03-19T20:32:58.284Z,94778.30
2019-03-19T20:35:27.069Z,94781.81
2019-03-19T20:37:55.746Z,94786.66
2019-03-19T20:40:24.432Z,94789.14
2019-03-19T20:42:53.118Z,94792.45
2019-03-19T20:45:28.719Z,94795.67
2019-03-19T20:47:57.507Z,94796.63
2019-03-19T20:50:28.621Z,94800.36
2019-03-19T20:52:57.291Z,94804.34
2019-03-19T20:55:25.965Z,94804.30
2019-03-19T20:57:54.664Z,94807.89
2019-03-19T21:00:23.562Z,94804.56
2019-03-19T21:02:52.283Z,94807.84
2019-03-19T21:05:21.056Z,94808.06
2019-03-19T21:07:49.698Z,94809.56
2019-03-19T21:10:20.719Z,94812.91
2019-03-19T21:12:49.586Z,94816.84
2019-03-19T21:15:21.163Z,94810.73
2019-03-19T21:17:49.935Z,94815.38
2019-03-19T21:20:18.604Z,94820.75
2019-03-19T21:22:47.282Z,94818.91
2019-03-19T21:25:15.991Z,94814.46
2019-03-19T21:27:44.921Z,94818.34
2019-03-19T21:30:16.217Z,94818.61
2019-03-19T21:32:44.889Z,94814.73
2019-03-19T21:35:13.588Z,94820.13
2019-03-19T21:37:42.250Z,94818.28
2019-03-19T21:40:13.133Z,94822.12
2019-03-19T21:42:41.922Z,94825.09
2019-03-19T21:45:15.885Z,94823.56
2019-03-19T21:47:44.550Z,94822.59
2019-03-19T21:50:15.085Z,94826.03
2019-03-19T21:52:43.941Z,94823.52
2019-03-19T21:55:14.445Z,94829.94
2019-03-19T21:57:43.166Z,94827.95
2019-03-19T22:00:22.079Z,94831.50
2019-03-19T22:02:51.056Z,94830.77
2019-03-19T22:05:19.838Z,94832.95
2019-03-19T22:07:48.533Z,94832.40
2019-03-19T22:10:20.663Z,94836.23
2019-03-19T22:12:49.792Z,94832.74
2019-03-19T22:15:25.242Z,94834.88
2019-03-19T22:17:54.117Z,94836.72
2019-03-19T22:20:22.792Z,94836.50
2019-03-19T22:22:51.777Z,94840.67
2019-03-19T22:25:20.466Z,94833.67
2019-03-19T22:27:49.133Z,94844.57
2019-03-19T22:30:22.026Z,94845.50
2019-03-19T22:32:50.705Z,94844.00
2019-03-19T22:35:19.409Z,94844.91
2019-03-19T22:37:48.089Z,94844.82
2019-03-19T22:40:17.764Z,94850.01
2019-03-19T22:42:46.928Z,94844.48
2019-03-19T22:45:16.605Z,94848.23
2019-03-19T22:47:45.398Z,94850.01
2019-03-19T22:50:15.596Z,94850.13
2019-03-19T22:52:44.469Z,94858.63
2019-03-19T22:55:14.143Z,94854.00
2019-03-19T22:57:43.321Z,94860.20
2019-03-19T23:00:21.361Z,94860.20
2019-03-19T23:02:50.124Z,94857.05
2019-03-19T23:05:18.783Z,94859.05
2019-03-19T23:07:47.520Z,94860.55
2019-03-19T23:10:16.195Z,94859.05
2019-03-19T23:12:44.897Z,94864.97
2019-03-19T23:15:14.179Z,94860.00
2019-03-19T23:17:43.345Z,94870.52
2019-03-19T23:20:13.710Z,94873.16
2019-03-19T23:22:42.384Z,94879.48
2019-03-19T23:25:11.350Z,94872.20
2019-03-19T23:27:40.032Z,94875.63
2019-03-19T23:30:14.605Z,94880.23
2019-03-19T23:32:43.285Z,94872.95
2019-03-19T23:35:12.100Z,94878.35
2019-03-19T23:37:40.871Z,94874.27
2019-03-19T23:40:17.342Z,94875.34
2019-03-19T23:42:46.122Z,94873.84
2019-03-19T23:45:15.177Z,94876.67
2019-03-19T23:47:43.859Z,94884.70
2019-03-19T23:50:14.233Z,94883.68
2019-03-19T23:52:42.933Z,94876.15
2019-03-19T23:55:12.020Z,94883.53
2019-03-19T23:57:40.691Z,94894.66
